Time;durP1;ratioP1;P1;durP2;ratioP2;P2;SDS_P1;SDS_P2;PMS_P1;PMS_P2;Temp;Humidity;BMP_temperature;BMP_pressure;BME280_temperature;BME280_humidity;BME280_pressure;Samples;Min_cycle;Max_cycle;Signal;HPM_P1;HPM_P2
2022/05/04 00:00:34;;;;;;;11.65;2.90;;;8.30;99.90;;;;;;5032876;28;20048;-76
2022/05/04 00:03:00;;;;;;;12.35;2.72;;;8.30;99.90;;;;;;4999096;28;20127;-78
2022/05/04 00:05:26;;;;;;;12.68;2.55;;;8.40;99.90;;;;;;5015060;28;20037;-76
2022/05/04 00:07:51;;;;;;;9.50;3.00;;;8.30;99.90;;;;;;5014987;28;20049;-77
2022/05/04 00:10:17;;;;;;;10.23;2.90;;;8.30;99.90;;;;;;4998581;28;20037;-77
2022/05/04 00:12:43;;;;;;;5.47;2.97;;;8.30;99.90;;;;;;5014955;28;20080;-77
2022/05/04 00:15:09;;;;;;;14.63;3.03;;;8.30;99.90;;;;;;5032652;28;20488;-77
2022/05/04 00:17:34;;;;;;;8.30;2.30;;;8.30;99.90;;;;;;5031299;28;20046;-78
2022/05/04 00:20:00;;;;;;;7.25;2.38;;;8.30;99.90;;;;;;5014983;28;20067;-77
2022/05/04 00:22:26;;;;;;;7.90;2.35;;;8.30;99.90;;;;;;5032433;28;20037;-77
2022/05/04 00:24:52;;;;;;;8.25;2.47;;;8.30;99.90;;;;;;5032367;28;20512;-76
2022/05/04 00:27:18;;;;;;;12.68;3.13;;;8.30;99.90;;;;;;5032258;28;20049;-76
2022/05/04 00:29:45;;;;;;;10.52;3.65;;;8.30;99.90;;;;;;5032215;28;20124;-77
2022/05/04 00:32:12;;;;;;;8.18;2.58;;;8.30;99.90;;;;;;5032407;28;20091;-78
2022/05/04 00:34:38;;;;;;;11.15;2.40;;;8.30;99.90;;;;;;5014532;28;20501;-76
2022/05/04 00:37:04;;;;;;;7.57;3.00;;;8.30;99.90;;;;;;5032216;28;20128;-76
2022/05/04 00:39:29;;;;;;;7.93;2.25;;;8.30;99.90;;;;;;5032510;28;20121;-77
2022/05/04 00:42:15;;;;;;;7.60;3.42;;;8.30;99.90;;;;;;5032109;28;20043;-79
2022/05/04 00:44:42;;;;;;;5.93;2.47;;;8.30;99.90;;;;;;5032190;28;20037;-77
2022/05/04 00:47:08;;;;;;;9.75;2.15;;;8.30;99.90;;;;;;5032452;28;20052;-77
2022/05/04 00:49:47;;;;;;;10.98;2.72;;;8.30;99.90;;;;;;5029023;28;20045;-77
2022/05/04 00:52:13;;;;;;;8.20;3.05;;;8.30;99.90;;;;;;5050063;28;20076;-77
2022/05/04 00:54:41;;;;;;;10.10;2.30;;;8.30;99.90;;;;;;5039990;28;20037;-77
2022/05/04 00:57:08;;;;;;;12.15;2.72;;;8.20;99.90;;;;;;5034775;28;20042;-77
2022/05/04 00:59:36;;;;;;;4.25;2.00;;;8.30;99.90;;;;;;5033879;28;20041;-77
2022/05/04 01:02:02;;;;;;;8.13;2.10;;;8.30;99.90;;;;;;5016559;28;20192;-77
2022/05/04 01:04:28;;;;;;;10.15;2.97;;;8.30;99.90;;;;;;5033743;28;20061;-78
2022/05/04 01:06:53;;;;;;;10.63;2.38;;;8.30;99.90;;;;;;5034063;28;20041;-77
2022/05/04 01:09:19;;;;;;;8.15;2.20;;;8.30;99.90;;;;;;4999629;28;20111;-77
2022/05/04 01:11:46;;;;;;;8.38;2.33;;;8.20;99.90;;;;;;5033324;28;20041;-77
2022/05/04 01:14:12;;;;;;;8.00;2.10;;;8.20;99.90;;;;;;5015166;28;20042;-77
2022/05/04 01:16:41;;;;;;;10.98;2.25;;;8.20;99.90;;;;;;5033055;28;20425;-78
2022/05/04 01:19:08;;;;;;;8.38;3.10;;;8.20;99.90;;;;;;5014823;28;20052;-77
2022/05/04 01:21:33;;;;;;;5.05;2.35;;;8.20;99.90;;;;;;5015081;28;20033;-77
2022/05/04 01:23:59;;;;;;;5.72;2.08;;;8.20;99.90;;;;;;5015103;28;20111;-77
2022/05/04 01:26:25;;;;;;;13.88;2.53;;;8.20;99.90;;;;;;5032503;28;20602;-76
2022/05/04 01:28:51;;;;;;;4.95;2.08;;;8.20;99.90;;;;;;5032558;28;20120;-76
2022/05/04 01:31:17;;;;;;;5.50;2.38;;;8.20;99.90;;;;;;5019087;28;20037;-77
2022/05/04 01:33:42;;;;;;;8.55;2.13;;;8.20;99.90;;;;;;5036885;28;20041;-76
2022/05/04 01:36:08;;;;;;;12.40;2.65;;;8.20;99.90;;;;;;5036262;28;20046;-77
2022/05/04 01:38:34;;;;;;;7.50;2.60;;;8.20;99.90;;;;;;5036287;28;20048;-77
2022/05/04 01:41:00;;;;;;;9.32;2.03;;;8.10;99.90;;;;;;5036413;28;20076;-77
2022/05/04 01:43:26;;;;;;;6.03;2.33;;;8.10;99.90;;;;;;5018863;28;20131;-77
2022/05/04 01:45:52;;;;;;;10.07;2.10;;;8.10;99.90;;;;;;5036102;28;20511;-77
2022/05/04 01:48:18;;;;;;;5.78;2.10;;;8.10;99.90;;;;;;5036034;28;20048;-77
2022/05/04 01:50:43;;;;;;;6.82;2.92;;;8.10;99.90;;;;;;5035878;28;20048;-77
2022/05/04 01:53:09;;;;;;;8.27;2.38;;;8.10;99.90;;;;;;5018077;28;20045;-76
2022/05/04 01:55:35;;;;;;;4.38;1.90;;;8.10;99.90;;;;;;5035930;28;20116;-76
2022/05/04 01:58:03;;;;;;;6.28;2.30;;;8.10;99.90;;;;;;5035816;28;20408;-76
2022/05/04 02:00:28;;;;;;;10.23;2.78;;;8.10;99.90;;;;;;5035430;28;20076;-77
2022/05/04 02:02:54;;;;;;;10.15;2.80;;;8.10;99.90;;;;;;5035444;28;20045;-77
2022/05/04 02:05:23;;;;;;;6.15;1.90;;;8.10;99.90;;;;;;5017648;28;20156;-79
2022/05/04 02:07:49;;;;;;;6.80;2.38;;;8.00;99.90;;;;;;5035463;28;20045;-76
2022/05/04 02:10:15;;;;;;;8.57;2.70;;;8.00;99.90;;;;;;5035292;28;20492;-77
2022/05/04 02:12:41;;;;;;;15.98;2.53;;;8.00;99.90;;;;;;5035489;28;20798;-76
2022/05/04 02:15:08;;;;;;;6.80;2.00;;;8.00;99.90;;;;;;5001471;28;20056;-76
2022/05/04 02:17:34;;;;;;;8.10;2.08;;;8.00;99.90;;;;;;5017293;28;20517;-76
2022/05/04 02:20:00;;;;;;;7.47;2.28;;;8.00;99.90;;;;;;5034880;28;20571;-77
2022/05/04 02:22:25;;;;;;;13.02;2.53;;;8.00;99.90;;;;;;5035298;28;20228;-76
2022/05/04 02:24:51;;;;;;;8.10;2.05;;;8.00;99.90;;;;;;5035189;28;20044;-76
2022/05/04 02:27:17;;;;;;;9.40;2.00;;;8.00;99.90;;;;;;5034523;28;20052;-76
2022/05/04 02:29:42;;;;;;;8.70;2.33;;;7.90;99.90;;;;;;5034588;28;20045;-79
2022/05/04 02:32:08;;;;;;;7.63;1.98;;;7.90;99.90;;;;;;5034524;28;20485;-76
2022/05/04 02:34:33;;;;;;;8.80;2.38;;;7.90;99.90;;;;;;5034457;28;20052;-76
2022/05/04 02:39:43;;;;;;;6.47;3.53;;;7.90;99.90;;;;;;5034363;28;20045;-76
2022/05/04 02:42:10;;;;;;;9.93;2.47;;;7.80;99.90;;;;;;5033255;28;20033;-76
2022/05/04 02:44:36;;;;;;;7.80;2.00;;;7.80;99.90;;;;;;5000492;28;20037;-76
2022/05/04 02:47:01;;;;;;;6.25;2.30;;;7.80;99.90;;;;;;5034165;28;20547;-76
2022/05/04 02:49:27;;;;;;;16.85;3.33;;;7.80;99.90;;;;;;5034199;28;20042;-77
2022/05/04 02:51:52;;;;;;;10.48;2.47;;;7.90;99.90;;;;;;5016621;28;20511;-76
2022/05/04 02:54:18;;;;;;;7.40;2.25;;;7.80;99.90;;;;;;5034108;28;20120;-76
2022/05/04 02:56:43;;;;;;;4.50;2.13;;;7.80;99.90;;;;;;5033972;28;20096;-76
2022/05/04 02:59:09;;;;;;;8.05;2.53;;;7.80;99.90;;;;;;5034057;28;20086;-78
2022/05/04 03:04:19;;;;;;;6.68;2.60;;;7.80;99.90;;;;;;5034065;28;20045;-76
2022/05/04 03:06:44;;;;;;;5.38;2.05;;;7.80;99.90;;;;;;5034020;28;20120;-76
2022/05/04 03:09:11;;;;;;;14.15;4.68;;;7.70;99.90;;;;;;5033845;28;20037;-77
2022/05/04 03:11:55;;;;;;;5.18;2.35;;;7.80;99.90;;;;;;5033903;28;20054;-76
2022/05/04 03:14:23;;;;;;;8.07;2.90;;;7.70;99.90;;;;;;5033816;28;20104;-76
2022/05/04 03:16:49;;;;;;;8.80;3.83;;;7.70;99.90;;;;;;5016063;28;20053;-77
2022/05/04 03:19:15;;;;;;;9.05;2.20;;;7.70;99.90;;;;;;5015785;28;20552;-76
2022/05/04 03:21:41;;;;;;;7.25;1.77;;;7.70;99.90;;;;;;4999814;28;20100;-76
2022/05/04 03:24:07;;;;;;;7.57;2.65;;;7.70;99.90;;;;;;5033554;28;20081;-76
2022/05/04 03:26:33;;;;;;;8.55;2.20;;;7.70;99.90;;;;;;4999610;28;20041;-76
2022/05/04 03:28:58;;;;;;;6.93;2.35;;;7.70;99.90;;;;;;5015584;28;20115;-76
2022/05/04 03:31:24;;;;;;;11.07;2.47;;;7.70;99.90;;;;;;5033566;28;20409;-78
2022/05/04 03:33:50;;;;;;;7.82;2.55;;;7.70;99.90;;;;;;5033475;28;20045;-76
2022/05/04 03:36:16;;;;;;;6.90;2.42;;;7.70;99.90;;;;;;5033309;28;20088;-76
2022/05/04 03:38:44;;;;;;;9.27;2.75;;;7.70;99.90;;;;;;5033271;28;20045;-76
2022/05/04 03:41:09;;;;;;;7.60;2.50;;;7.70;99.90;;;;;;5015444;28;20045;-76
2022/05/04 03:43:35;;;;;;;8.90;2.85;;;7.70;99.90;;;;;;5033165;28;20568;-76
2022/05/04 03:46:28;;;;;;;7.55;2.80;;;7.70;99.90;;;;;;5033217;28;20437;-77
2022/05/04 03:48:55;;;;;;;7.25;2.47;;;7.70;99.90;;;;;;5030592;28;20053;-76
2022/05/04 03:51:22;;;;;;;4.95;2.00;;;7.70;99.90;;;;;;5047207;28;20065;-79
2022/05/04 03:53:49;;;;;;;10.75;3.28;;;7.70;99.90;;;;;;5050505;28;20048;-78
2022/05/04 03:56:15;;;;;;;11.07;2.80;;;7.70;99.90;;;;;;5040621;28;20045;-77
2022/05/04 03:58:42;;;;;;;7.38;2.75;;;7.60;99.90;;;;;;5035103;28;20176;-78
2022/05/04 04:01:07;;;;;;;10.35;3.17;;;7.60;99.90;;;;;;5036306;28;20037;-77
2022/05/04 04:03:33;;;;;;;9.38;2.75;;;7.60;99.90;;;;;;5036233;28;20373;-78
2022/05/04 04:05:59;;;;;;;10.10;2.45;;;7.60;99.90;;;;;;5035395;28;20085;-77
2022/05/04 04:08:25;;;;;;;5.05;2.30;;;7.60;99.90;;;;;;5035188;28;20053;-77
2022/05/04 04:10:51;;;;;;;12.77;2.50;;;7.60;99.90;;;;;;5016868;28;20109;-77
2022/05/04 04:13:17;;;;;;;9.70;2.38;;;7.60;99.90;;;;;;5034632;28;20057;-77
2022/05/04 04:15:43;;;;;;;9.20;2.92;;;7.60;99.90;;;;;;5033763;28;20099;-76
2022/05/04 04:18:09;;;;;;;11.95;2.92;;;7.70;99.90;;;;;;4999507;28;20115;-76
2022/05/04 04:23:20;;;;;;;14.68;4.32;;;7.70;99.90;;;;;;5015556;28;20045;-78
2022/05/04 04:25:45;;;;;;;14.20;3.03;;;7.60;99.90;;;;;;5033057;28;20053;-76
2022/05/04 04:28:11;;;;;;;10.68;3.55;;;7.60;99.90;;;;;;5032803;28;20509;-77
2022/05/04 04:30:40;;;;;;;8.68;2.88;;;7.60;99.90;;;;;;5014200;28;20045;-76
2022/05/04 04:33:06;;;;;;;5.20;2.30;;;7.70;99.90;;;;;;5032217;28;20072;-77
2022/05/04 04:35:33;;;;;;;7.85;2.45;;;7.70;99.90;;;;;;5032117;28;20048;-77
2022/05/04 04:38:00;;;;;;;8.13;3.15;;;7.70;99.90;;;;;;5014203;28;20129;-77
2022/05/04 04:40:25;;;;;;;6.20;2.15;;;7.70;99.90;;;;;;5031710;28;20029;-77
2022/05/04 04:42:51;;;;;;;12.63;4.05;;;7.70;99.90;;;;;;5031994;28;20475;-77
2022/05/04 04:45:17;;;;;;;7.80;3.17;;;7.70;99.90;;;;;;5014199;28;20049;-78
2022/05/04 04:47:44;;;;;;;12.30;5.97;;;7.80;99.90;;;;;;5031620;28;20103;-77
2022/05/04 04:50:10;;;;;;;4.78;3.40;;;7.80;99.90;;;;;;5013067;28;20041;-78
2022/05/04 04:52:35;;;;;;;9.88;3.97;;;7.90;99.90;;;;;;5013752;28;20037;-77
2022/05/04 04:55:01;;;;;;;9.00;3.03;;;7.90;99.90;;;;;;5013834;28;20389;-77
2022/05/04 04:57:26;;;;;;;4.57;2.40;;;7.90;99.90;;;;;;5013318;28;20052;-78
2022/05/04 04:59:52;;;;;;;7.38;3.00;;;7.90;99.90;;;;;;5013425;28;20087;-77
2022/05/04 05:02:17;;;;;;;12.60;3.15;;;7.90;99.90;;;;;;5031317;28;20052;-77
2022/05/04 05:04:43;;;;;;;10.70;2.40;;;8.00;99.90;;;;;;5030652;28;20042;-78
2022/05/04 05:07:09;;;;;;;10.18;2.35;;;8.00;99.90;;;;;;5013512;28;20481;-78
2022/05/04 05:09:34;;;;;;;6.40;2.47;;;8.00;99.90;;;;;;5013289;28;20052;-77
2022/05/04 05:12:00;;;;;;;13.85;4.93;;;8.10;99.90;;;;;;5031206;28;20447;-77
2022/05/04 05:17:09;;;;;;;9.40;3.00;;;8.10;99.90;;;;;;5029749;28;20060;-77
2022/05/04 05:19:35;;;;;;;17.05;3.30;;;8.20;99.90;;;;;;5013203;28;20526;-77
2022/05/04 05:22:00;;;;;;;7.65;2.70;;;8.20;99.90;;;;;;5013377;28;20045;-77
2022/05/04 05:24:26;;;;;;;11.23;3.22;;;8.20;99.90;;;;;;5013583;28;20036;-77
2022/05/04 05:26:51;;;;;;;13.93;2.75;;;8.30;99.90;;;;;;5031248;28;20455;-77
2022/05/04 05:29:17;;;;;;;8.75;3.10;;;8.30;99.90;;;;;;4997275;28;20045;-77
2022/05/04 05:31:42;;;;;;;11.00;2.70;;;8.40;99.90;;;;;;5013266;28;20041;-77
2022/05/04 05:34:08;;;;;;;6.35;2.70;;;8.40;99.90;;;;;;4996869;28;20514;-78
2022/05/04 05:36:34;;;;;;;6.93;3.00;;;8.50;99.90;;;;;;4996950;28;20041;-78
2022/05/04 05:38:59;;;;;;;12.73;3.45;;;8.50;99.90;;;;;;5013177;28;20038;-77
2022/05/04 05:41:25;;;;;;;11.38;5.03;;;8.50;99.90;;;;;;5012900;28;20052;-77
2022/05/04 05:43:51;;;;;;;12.00;3.75;;;8.60;99.90;;;;;;5013226;28;20041;-77
2022/05/04 05:46:17;;;;;;;11.85;2.92;;;8.60;99.90;;;;;;5012829;28;20053;-78
2022/05/04 05:48:43;;;;;;;8.05;2.60;;;8.60;99.90;;;;;;5030890;28;20076;-77
2022/05/04 05:51:09;;;;;;;7.18;2.75;;;8.70;99.90;;;;;;5012496;28;20144;-77
2022/05/04 05:53:34;;;;;;;5.95;2.22;;;8.70;99.90;;;;;;5011617;28;20045;-77
2022/05/04 05:56:00;;;;;;;11.43;2.78;;;8.80;99.90;;;;;;5011576;28;20132;-77
2022/05/04 05:58:26;;;;;;;6.55;2.40;;;8.90;99.90;;;;;;4995413;28;20431;-77
2022/05/04 06:00:52;;;;;;;5.85;2.05;;;8.90;99.90;;;;;;5011711;28;20428;-76
2022/05/04 06:03:18;;;;;;;9.68;2.47;;;9.00;99.90;;;;;;5011794;28;20050;-76
2022/05/04 06:05:43;;;;;;;9.85;2.53;;;9.10;99.90;;;;;;5011702;28;20041;-77
2022/05/04 06:08:09;;;;;;;10.48;1.95;;;9.10;99.90;;;;;;5012623;28;20054;-77
2022/05/04 06:10:38;;;;;;;10.27;2.35;;;9.10;99.90;;;;;;4996073;28;20041;-77
2022/05/04 06:13:04;;;;;;;9.57;2.90;;;9.20;99.90;;;;;;5012574;28;20103;-77
2022/05/04 06:15:30;;;;;;;4.82;2.13;;;9.30;99.90;;;;;;5014081;28;20053;-78
2022/05/04 06:17:56;;;;;;;10.60;2.35;;;9.30;99.90;;;;;;5016011;28;20661;-77
2022/05/04 06:20:23;;;;;;;11.73;3.40;;;9.50;99.90;;;;;;5015451;28;20068;-77
2022/05/04 06:22:49;;;;;;;7.78;2.40;;;9.50;99.90;;;;;;5032682;28;20504;-77
2022/05/04 06:25:14;;;;;;;8.50;2.45;;;9.60;99.90;;;;;;5016253;28;20069;-77
2022/05/04 06:27:40;;;;;;;5.35;2.35;;;9.60;99.90;;;;;;5016305;28;20037;-77
2022/05/04 06:35:34;;;;;;;6.88;2.30;;;9.60;99.90;;;;;;5033536;28;20207;-77
2022/05/04 06:37:59;;;;;;;5.88;2.00;;;9.70;99.90;;;;;;5015667;28;20153;-77
2022/05/04 06:40:25;;;;;;;8.57;1.90;;;9.80;99.90;;;;;;5015407;28;20139;-77
2022/05/04 06:42:51;;;;;;;9.48;2.55;;;9.80;99.90;;;;;;5015709;28;20045;-77
2022/05/04 06:45:16;;;;;;;9.82;2.97;;;10.00;99.90;;;;;;4999596;28;20041;-77
2022/05/04 06:47:42;;;;;;;7.55;2.35;;;10.00;99.90;;;;;;5015564;28;20044;-78
2022/05/04 06:50:10;;;;;;;6.47;2.97;;;10.20;99.90;;;;;;5015304;28;20478;-77
2022/05/04 06:52:37;;;;;;;6.15;3.25;;;10.30;99.90;;;;;;5027454;28;20059;-78
2022/05/04 06:55:02;;;;;;;12.25;2.22;;;10.50;99.90;;;;;;5034083;28;20409;-77
2022/05/04 06:57:28;;;;;;;6.32;2.10;;;10.60;99.90;;;;;;5026113;28;20183;-78
2022/05/04 06:59:54;;;;;;;4.57;2.28;;;10.80;99.90;;;;;;5015178;28;20488;-78
2022/05/04 07:02:20;;;;;;;11.85;2.78;;;10.90;99.90;;;;;;4999190;28;20049;-77
2022/05/04 07:04:45;;;;;;;9.82;2.53;;;10.90;99.90;;;;;;5015453;28;20120;-77
2022/05/04 07:07:11;;;;;;;10.23;2.60;;;11.00;99.90;;;;;;5015337;28;20049;-78
2022/05/04 07:09:36;;;;;;;11.65;2.78;;;11.20;99.90;;;;;;4998540;28;20045;-77
2022/05/04 07:12:02;;;;;;;7.32;2.00;;;11.40;99.90;;;;;;5015069;28;20045;-78
2022/05/04 07:14:28;;;;;;;6.82;2.13;;;11.50;99.90;;;;;;5033115;28;20056;-77
2022/05/04 07:16:53;;;;;;;7.20;2.42;;;11.60;99.90;;;;;;5015073;28;20083;-78
2022/05/04 07:19:19;;;;;;;7.40;2.08;;;11.60;99.90;;;;;;5014835;28;20092;-77
2022/05/04 07:21:48;;;;;;;7.10;2.30;;;11.70;99.90;;;;;;5014788;28;20056;-78
2022/05/04 07:24:13;;;;;;;8.82;1.90;;;11.80;99.90;;;;;;5014834;28;20041;-78
2022/05/04 07:26:42;;;;;;;5.63;2.13;;;12.00;99.90;;;;;;5014407;28;20119;-78
2022/05/04 07:29:08;;;;;;;6.75;2.13;;;12.20;99.90;;;;;;5014583;28;20041;-78
2022/05/04 07:31:34;;;;;;;5.72;1.95;;;12.50;99.90;;;;;;5014941;28;20041;-77
2022/05/04 07:33:59;;;;;;;7.40;1.77;;;12.80;99.90;;;;;;5032629;28;20068;-77
2022/05/04 07:36:25;;;;;;;7.57;2.13;;;13.10;99.90;;;;;;5014654;28;20041;-78
2022/05/04 07:38:50;;;;;;;8.35;2.22;;;13.10;99.90;;;;;;5014579;28;20080;-78
2022/05/04 07:44:00;;;;;;;5.80;2.10;;;13.10;99.90;;;;;;5030974;28;20076;-77
2022/05/04 07:46:29;;;;;;;7.53;2.50;;;13.10;99.90;;;;;;5014560;28;20076;-78
2022/05/04 07:48:55;;;;;;;6.45;1.98;;;13.00;99.90;;;;;;5014441;28;20045;-78
2022/05/04 07:51:21;;;;;;;12.27;2.50;;;13.00;99.90;;;;;;5014062;28;20072;-78
2022/05/04 07:53:47;;;;;;;9.30;2.13;;;12.90;99.90;;;;;;5014383;28;20075;-77
2022/05/04 07:56:12;;;;;;;5.70;2.10;;;13.00;99.90;;;;;;4998325;28;20041;-77
2022/05/04 07:58:38;;;;;;;5.43;2.33;;;13.00;99.90;;;;;;5014644;28;20476;-77
2022/05/04 08:06:31;;;;;;;7.07;2.20;;;13.30;99.90;;;;;;5030788;28;20060;-77
2022/05/04 08:08:57;;;;;;;5.07;1.90;;;13.60;99.80;;;;;;5014189;28;20412;-77
2022/05/04 08:11:22;;;;;;;8.20;2.50;;;14.10;98.80;;;;;;5013835;28;20455;-77
2022/05/04 08:13:48;;;;;;;6.85;3.00;;;14.70;98.00;;;;;;4997869;28;20052;-79
2022/05/04 08:16:13;;;;;;;7.40;2.50;;;15.20;96.00;;;;;;5014004;28;20045;-77
2022/05/04 08:18:40;;;;;;;8.93;2.97;;;15.50;94.30;;;;;;4997783;28;20033;-78
2022/05/04 08:21:07;;;;;;;6.40;2.47;;;15.70;92.80;;;;;;4997129;28;20033;-78
2022/05/04 08:23:32;;;;;;;7.43;2.10;;;16.00;91.60;;;;;;5014158;28;20048;-79
2022/05/04 08:25:58;;;;;;;7.25;2.03;;;16.30;90.40;;;;;;4997638;28;20046;-78
2022/05/04 08:28:24;;;;;;;4.10;1.92;;;16.50;89.90;;;;;;4997735;28;20041;-77
2022/05/04 08:30:49;;;;;;;7.20;1.92;;;16.40;87.70;;;;;;5013602;28;20049;-78
2022/05/04 08:33:15;;;;;;;6.22;2.03;;;16.10;87.50;;;;;;4997491;28;20033;-77
2022/05/04 08:35:41;;;;;;;6.43;2.20;;;16.30;86.70;;;;;;4997716;28;20108;-78
2022/05/04 08:38:06;;;;;;;7.22;1.83;;;16.50;86.50;;;;;;4997069;28;20412;-80
2022/05/04 08:40:32;;;;;;;7.13;1.80;;;16.40;84.60;;;;;;5030651;28;20052;-77
2022/05/04 08:43:02;;;;;;;6.03;1.70;;;15.90;82.60;;;;;;5013962;28;20048;-77
2022/05/04 08:45:29;;;;;;;7.45;2.42;;;15.60;81.70;;;;;;5031384;28;20046;-78
2022/05/04 08:47:56;;;;;;;8.00;2.08;;;15.30;81.00;;;;;;5031350;28;20063;-77
2022/05/04 08:50:22;;;;;;;10.93;3.50;;;14.90;81.40;;;;;;5013368;28;20111;-77
2022/05/04 08:52:53;;;;;;;6.07;1.52;;;14.50;80.80;;;;;;5031440;28;20053;-77
2022/05/04 08:55:24;;;;;;;7.57;1.75;;;14.20;81.40;;;;;;5013738;28;20056;-77
2022/05/04 08:57:50;;;;;;;8.68;2.30;;;13.60;80.40;;;;;;5031259;28;20052;-79
2022/05/04 09:00:16;;;;;;;7.65;1.85;;;13.40;84.20;;;;;;4996766;28;20041;-77
2022/05/04 09:02:42;;;;;;;10.38;1.92;;;13.40;85.30;;;;;;5013647;28;20408;-77
2022/05/04 09:05:15;;;;;;;7.15;2.10;;;13.90;84.80;;;;;;5014139;28;20041;-78
2022/05/04 09:07:43;;;;;;;8.10;1.95;;;14.40;82.10;;;;;;5013959;28;20056;-77
2022/05/04 09:10:17;;;;;;;6.85;1.75;;;14.90;81.80;;;;;;5013551;28;20060;-77
2022/05/04 09:12:44;;;;;;;9.43;1.58;;;15.30;79.30;;;;;;5031403;28;20063;-78
2022/05/04 09:15:24;;;;;;;8.07;1.73;;;15.70;79.30;;;;;;4997681;28;20125;-77
2022/05/04 09:18:01;;;;;;;10.60;2.65;;;16.00;73.40;;;;;;5031487;28;20037;-77
2022/05/04 09:23:33;;;;;;;6.07;1.83;;;16.60;71.50;;;;;;5030308;28;20535;-78
2022/05/04 09:26:01;;;;;;;5.85;1.67;;;16.60;68.00;;;;;;4996771;28;20500;-78
2022/05/04 09:28:28;;;;;;;7.07;2.33;;;16.60;70.00;;;;;;4997017;28;20128;-77
2022/05/04 09:30:56;;;;;;;6.38;2.30;;;16.20;73.80;;;;;;4996295;28;20516;-79
2022/05/04 09:33:27;;;;;;;8.32;2.00;;;15.90;74.60;;;;;;5013285;28;20045;-81
2022/05/04 09:35:54;;;;;;;7.67;1.87;;;15.60;74.00;;;;;;5013245;28;20168;-78
2022/05/04 09:46:44;;;;;;;7.65;2.00;;;15.30;75.10;;;;;;5035887;28;20067;-81
2022/05/04 09:49:12;;;;;;;6.45;2.13;;;15.70;74.00;;;;;;5002517;28;20034;-81
2022/05/04 09:51:39;;;;;;;7.50;2.10;;;16.10;72.10;;;;;;5005698;28;20045;-81
2022/05/04 09:54:21;;;;;;;8.23;1.85;;;16.50;70.20;;;;;;5006226;28;20052;-80
2022/05/04 09:56:50;;;;;;;4.97;1.95;;;16.70;64.80;;;;;;5022675;28;20072;-80
2022/05/04 09:59:18;;;;;;;4.90;1.85;;;16.90;64.50;;;;;;5023276;28;20101;-81
2022/05/04 10:01:45;;;;;;;6.07;1.95;;;17.10;66.70;;;;;;5006163;28;20088;-81
2022/05/04 10:04:11;;;;;;;4.30;1.73;;;17.20;67.30;;;;;;5022060;28;20049;-81
2022/05/04 10:06:37;;;;;;;6.68;1.90;;;17.30;67.00;;;;;;5005629;28;20037;-81
2022/05/04 10:09:04;;;;;;;5.03;1.73;;;17.50;66.80;;;;;;5005247;28;20098;-81
2022/05/04 10:11:32;;;;;;;5.78;2.13;;;17.50;61.80;;;;;;5021184;28;20144;-81
2022/05/04 10:14:02;;;;;;;5.40;2.17;;;17.20;59.80;;;;;;5038270;28;20403;-81
2022/05/04 10:16:31;;;;;;;8.50;2.45;;;17.10;60.90;;;;;;5021953;28;20044;-82
2022/05/04 10:18:59;;;;;;;6.47;1.98;;;16.90;63.50;;;;;;5004330;28;20045;-82
2022/05/04 10:21:26;;;;;;;10.23;2.20;;;16.90;64.40;;;;;;5021276;28;20048;-81
2022/05/04 10:24:01;;;;;;;4.72;1.98;;;16.80;62.00;;;;;;5020197;28;20056;-81
2022/05/04 10:26:32;;;;;;;5.75;1.88;;;16.80;61.00;;;;;;5020388;28;20518;-81
2022/05/04 10:31:53;;;;;;;7.15;2.00;;;16.70;61.00;;;;;;5036289;28;20056;-81
2022/05/04 10:34:19;;;;;;;4.18;1.70;;;16.60;59.80;;;;;;5018409;28;20041;-81
2022/05/04 10:36:52;;;;;;;11.90;2.38;;;16.30;61.40;;;;;;5018346;28;20043;-80
2022/05/04 10:39:22;;;;;;;5.95;1.85;;;16.30;64.60;;;;;;5004415;28;20037;-81
2022/05/04 10:41:47;;;;;;;5.28;1.55;;;16.40;61.70;;;;;;5033561;28;20035;-81
2022/05/04 10:44:15;;;;;;;4.70;1.73;;;16.50;62.90;;;;;;5030894;28;20046;-81
2022/05/04 10:46:47;;;;;;;5.68;2.17;;;16.40;63.60;;;;;;5051907;28;20059;-78
2022/05/04 10:49:15;;;;;;;8.73;1.90;;;16.50;63.10;;;;;;5034352;28;20049;-81
2022/05/04 10:51:44;;;;;;;6.32;2.20;;;16.50;63.50;;;;;;5016166;28;20049;-81
2022/05/04 10:54:18;;;;;;;7.22;2.03;;;16.60;64.40;;;;;;5015673;28;20042;-80
2022/05/04 10:56:52;;;;;;;9.63;2.60;;;16.60;62.90;;;;;;5015924;28;20432;-81
2022/05/04 10:59:29;;;;;;;7.95;2.05;;;16.30;63.40;;;;;;5000666;28;20041;-81
2022/05/04 11:01:56;;;;;;;3.47;1.70;;;16.20;61.40;;;;;;5019455;28;20053;-81
2022/05/04 11:04:25;;;;;;;6.22;1.85;;;15.90;63.60;;;;;;5020077;28;20101;-82
2022/05/04 11:06:53;;;;;;;4.70;2.08;;;15.80;66.10;;;;;;5005372;28;20486;-81
2022/05/04 11:09:20;;;;;;;9.52;2.42;;;15.80;63.70;;;;;;5003898;28;20132;-81
2022/05/04 11:11:52;;;;;;;6.13;2.33;;;15.80;63.20;;;;;;5024177;28;20163;-81
2022/05/04 11:14:22;;;;;;;7.20;2.67;;;16.00;63.00;;;;;;5024965;28;20034;-81
2022/05/04 11:16:50;;;;;;;9.70;2.28;;;16.20;63.00;;;;;;5029039;28;20068;-81
2022/05/04 11:19:16;;;;;;;7.40;1.90;;;16.40;62.40;;;;;;5020507;28;20129;-81
2022/05/04 11:21:42;;;;;;;6.95;2.28;;;16.60;63.80;;;;;;5017269;28;20069;-81
2022/05/04 11:24:10;;;;;;;7.35;2.28;;;16.80;63.40;;;;;;5006798;28;20045;-79
2022/05/04 11:26:38;;;;;;;8.00;2.38;;;16.60;62.60;;;;;;5024587;28;20045;-81
2022/05/04 11:29:08;;;;;;;6.72;2.35;;;16.60;61.70;;;;;;5006750;28;20041;-79
2022/05/04 11:31:33;;;;;;;5.53;2.25;;;16.70;62.80;;;;;;5018259;28;20053;-80
2022/05/04 11:33:59;;;;;;;8.23;2.40;;;16.90;63.40;;;;;;4998725;28;20038;-81
2022/05/04 11:36:24;;;;;;;9.13;2.25;;;17.20;63.10;;;;;;5015032;28;20049;-82
2022/05/04 11:38:50;;;;;;;9.88;2.92;;;17.10;60.40;;;;;;5014835;28;20045;-81
2022/05/04 11:41:17;;;;;;;6.20;2.22;;;17.30;60.90;;;;;;4998629;28;20452;-80
2022/05/04 11:43:43;;;;;;;5.68;2.22;;;17.20;60.90;;;;;;4998722;28;20046;-81
2022/05/04 11:46:12;;;;;;;5.90;2.10;;;17.30;61.80;;;;;;4998463;28;20045;-81
2022/05/04 11:48:42;;;;;;;7.05;2.28;;;17.20;59.90;;;;;;5014675;28;20037;-81
2022/05/04 11:51:13;;;;;;;8.25;2.60;;;17.40;60.40;;;;;;5014584;28;20184;-81
2022/05/04 11:53:39;;;;;;;6.28;2.30;;;17.40;60.40;;;;;;5014831;28;20037;-81
2022/05/04 11:56:07;;;;;;;6.05;2.40;;;17.30;60.30;;;;;;5014979;28;20040;-80
2022/05/04 11:58:34;;;;;;;11.98;2.35;;;16.90;59.90;;;;;;5032442;28;20048;-80
2022/05/04 12:01:01;;;;;;;4.30;2.00;;;16.70;60.60;;;;;;5014514;28;20544;-82
2022/05/04 12:03:30;;;;;;;9.50;2.45;;;16.50;61.60;;;;;;4998350;28;20052;-82
2022/05/04 12:05:57;;;;;;;8.20;2.33;;;16.50;61.60;;;;;;5014536;28;20488;-81
2022/05/04 12:08:24;;;;;;;6.28;2.10;;;16.50;61.80;;;;;;4998284;28;20122;-81
2022/05/04 12:10:50;;;;;;;9.45;2.70;;;16.60;62.80;;;;;;4998005;28;20049;-82
2022/05/04 12:13:22;;;;;;;4.22;2.33;;;16.70;63.00;;;;;;5015040;28;20417;-81
2022/05/04 12:15:54;;;;;;;8.25;2.15;;;16.90;62.80;;;;;;5032259;28;20088;-81
2022/05/04 12:18:20;;;;;;;8.13;2.93;;;17.10;62.00;;;;;;5032288;28;20516;-81
2022/05/04 12:20:49;;;;;;;8.27;2.97;;;17.40;62.00;;;;;;4998054;28;20284;-81
2022/05/04 12:23:15;;;;;;;4.68;2.00;;;17.60;60.40;;;;;;5014711;28;20038;-81
2022/05/04 12:25:42;;;;;;;8.13;2.65;;;17.60;59.70;;;;;;4997811;28;20034;-82
2022/05/04 12:28:09;;;;;;;8.50;2.60;;;17.70;59.20;;;;;;5014015;28;20512;-82
2022/05/04 12:33:37;;;;;;;7.15;2.38;;;17.70;58.50;;;;;;5030547;28;20045;-82
2022/05/04 12:36:05;;;;;;;4.75;2.40;;;17.80;59.20;;;;;;5013869;28;20052;-81
2022/05/04 12:38:33;;;;;;;8.98;2.38;;;17.80;59.10;;;;;;5030279;28;20049;-81
2022/05/04 12:40:59;;;;;;;9.85;2.85;;;17.90;59.20;;;;;;5029939;28;20055;-81
2022/05/04 12:43:30;;;;;;;5.05;2.17;;;18.00;58.90;;;;;;4998477;28;20030;-81
2022/05/04 12:45:56;;;;;;;10.27;2.47;;;18.00;59.40;;;;;;4997396;28;20039;-81
2022/05/04 12:48:25;;;;;;;6.30;2.38;;;18.30;58.90;;;;;;5014466;28;20041;-81
2022/05/04 12:50:52;;;;;;;7.25;2.22;;;18.50;57.50;;;;;;5013840;28;20049;-82
2022/05/04 12:53:18;;;;;;;6.60;2.03;;;18.50;57.90;;;;;;5015403;28;20089;-81
2022/05/04 12:58:28;;;;;;;5.88;2.63;;;18.40;57.00;;;;;;5030236;28;20051;-80
2022/05/04 13:00:55;;;;;;;6.93;2.55;;;18.40;57.30;;;;;;5013601;28;20112;-80
2022/05/04 13:03:21;;;;;;;8.60;2.22;;;18.20;56.50;;;;;;5014728;28;20049;-81
2022/05/04 13:05:46;;;;;;;9.30;2.78;;;17.90;58.00;;;;;;5013926;28;20564;-81
2022/05/04 13:08:12;;;;;;;8.40;2.42;;;17.70;58.00;;;;;;5013373;28;20092;-79
2022/05/04 13:10:38;;;;;;;8.07;2.85;;;17.70;58.20;;;;;;4997194;28;20120;-79
2022/05/04 13:13:04;;;;;;;8.02;2.47;;;17.70;57.90;;;;;;4998606;28;20087;-82
2022/05/04 13:15:29;;;;;;;5.68;2.58;;;17.60;58.50;;;;;;4998208;28;20053;-81
2022/05/04 13:17:55;;;;;;;5.90;2.55;;;17.70;59.40;;;;;;5013473;28;20083;-81
2022/05/04 13:20:21;;;;;;;7.93;2.42;;;17.80;58.00;;;;;;5014239;28;20037;-81
2022/05/04 13:22:47;;;;;;;4.80;2.78;;;17.90;58.30;;;;;;5031681;28;20045;-81
2022/05/04 13:25:12;;;;;;;5.28;2.60;;;17.80;58.70;;;;;;5000348;28;20404;-82
2022/05/04 13:27:38;;;;;;;6.97;2.65;;;17.90;58.50;;;;;;5004275;28;20211;-82
2022/05/04 13:30:07;;;;;;;3.97;2.28;;;18.00;58.60;;;;;;5003551;28;20080;-82
2022/05/04 13:32:33;;;;;;;7.63;3.08;;;18.00;59.60;;;;;;5020219;28;20519;-81